Kaniere, New Zealand
Current Conditions -  °F | °C
As of 2:30 PM on Thursday 27 Nov 2014 (Local Time) from NZCH Reporting Station
Clear Clear  
Wind Chill: 73°   Ceiling: Unl
Heat Index: 73°   Visibility: 6mi
Dew Point: 34°   Wind: 29mph
Humidity: 23%   Direction: 320°NW
Pressure: 29.44"   Gusts: NA
Location:  42.75°S, 171.01°E
Report Text: NZCH 270230Z AUTO 32025KT 9999 NCD 23/01 Q0997 NOSIG
Loading
Personal Weather Stations






























Interactive Weather Map New forecast layout! Learn more

10-Day Weather Forecast

Advertisements
Track Severe Weather on mobile